createdAt,value
2022-09-28T00:02:58.408Z,10.23
2022-09-28T00:06:02.681Z,10.04
2022-09-28T00:09:05.160Z,9.98
2022-09-28T00:12:07.675Z,9.90
2022-09-28T00:15:10.144Z,9.88
2022-09-28T00:18:14.679Z,9.82
2022-09-28T00:21:21.566Z,9.83
2022-09-28T00:24:27.454Z,9.74
2022-09-28T00:27:33.112Z,9.66
2022-09-28T00:30:35.574Z,9.70
2022-09-28T00:33:37.840Z,9.62
2022-09-28T00:36:43.136Z,9.45
2022-09-28T00:39:45.754Z,9.33
2022-09-28T00:42:48.550Z,9.33
2022-09-28T00:45:56.390Z,9.39
2022-09-28T00:49:03.249Z,9.54
2022-09-28T00:52:06.585Z,9.62
2022-09-28T00:55:11.902Z,9.68
2022-09-28T00:58:17.091Z,9.76
2022-09-28T01:01:19.754Z,9.90
2022-09-28T01:04:24.211Z,10.02
2022-09-28T01:07:32.082Z,10.17
2022-09-28T01:10:34.729Z,10.15
2022-09-28T01:13:37.722Z,10.15
2022-09-28T01:17:06.443Z,10.17
2022-09-28T01:20:24.844Z,10.12
2022-09-28T01:23:45.473Z,10.08
2022-09-28T01:26:52.106Z,10.07
2022-09-28T01:29:57.405Z,10.06
2022-09-28T01:33:05.308Z,10.00
2022-09-28T01:36:07.738Z,9.93
2022-09-28T01:39:16.764Z,9.82
2022-09-28T01:42:24.072Z,9.86
2022-09-28T01:45:29.102Z,9.88
2022-09-28T01:48:35.558Z,9.83
2022-09-28T01:51:48.483Z,9.82
2022-09-28T01:54:55.276Z,9.80
2022-09-28T01:58:02.151Z,9.86
2022-09-28T02:01:19.297Z,9.83
2022-09-28T02:04:29.433Z,9.88
2022-09-28T02:07:31.750Z,9.96
2022-09-28T02:10:40.192Z,9.95
2022-09-28T02:13:45.524Z,9.99
2022-09-28T02:16:49.175Z,10.00
2022-09-28T02:19:51.525Z,10.13
2022-09-28T02:22:55.967Z,10.17
2022-09-28T02:26:03.540Z,10.23
2022-09-28T02:29:06.511Z,10.18
2022-09-28T02:32:09.112Z,10.26
2022-09-28T02:35:12.347Z,10.24
2022-09-28T02:38:15.163Z,10.22
2022-09-28T02:41:26.567Z,10.17
2022-09-28T02:44:42.116Z,10.14
2022-09-28T02:48:00.742Z,10.11
2022-09-28T02:51:07.388Z,10.16
2022-09-28T02:54:09.784Z,10.29
2022-09-28T02:57:12.377Z,10.19
2022-09-28T03:00:18.151Z,10.23
2022-09-28T03:03:31.104Z,10.10
2022-09-28T03:06:39.501Z,9.99
2022-09-28T03:09:50.870Z,10.02
2022-09-28T03:12:53.897Z,10.09
2022-09-28T03:16:10.184Z,10.04
2022-09-28T03:19:13.587Z,9.97
2022-09-28T03:22:16.174Z,10.04
2022-09-28T03:25:19.370Z,10.10
2022-09-28T03:28:22.718Z,10.06
2022-09-28T03:31:25.074Z,10.01
2022-09-28T03:34:27.672Z,10.03
2022-09-28T03:37:30.285Z,10.01
2022-09-28T03:40:33.215Z,10.12
2022-09-28T03:43:35.584Z,10.01
2022-09-28T03:46:38.255Z,10.01
2022-09-28T03:49:40.544Z,9.99
2022-09-28T03:52:44.413Z,9.97
2022-09-28T03:55:46.591Z,9.89
2022-09-28T03:58:49.575Z,9.90
2022-09-28T04:01:52.299Z,9.90
2022-09-28T04:04:54.861Z,9.70
2022-09-28T04:07:57.854Z,9.62
2022-09-28T04:11:01.468Z,9.59
2022-09-28T04:14:04.796Z,9.67
2022-09-28T04:17:07.438Z,9.67
2022-09-28T04:20:09.936Z,9.72
2022-09-28T04:23:12.571Z,9.73
2022-09-28T04:26:19.318Z,9.83
2022-09-28T04:29:22.990Z,9.80
2022-09-28T04:32:26.983Z,9.88
2022-09-28T04:35:29.487Z,9.90
2022-09-28T04:38:51.857Z,9.79
2022-09-28T04:41:55.119Z,9.82
2022-09-28T04:44:58.776Z,9.80
2022-09-28T04:48:01.683Z,9.71
2022-09-28T04:51:04.193Z,9.69
2022-09-28T04:54:06.719Z,9.62
2022-09-28T04:57:09.118Z,9.62
2022-09-28T05:00:13.219Z,9.61
2022-09-28T05:03:17.691Z,9.63
2022-09-28T05:06:22.682Z,9.59
2022-09-28T05:09:25.438Z,9.55
2022-09-28T05:12:27.945Z,9.55
2022-09-28T05:15:31.044Z,9.54
2022-09-28T05:18:34.020Z,9.55
2022-09-28T05:21:36.499Z,9.39
2022-09-28T05:24:39.247Z,9.36
2022-09-28T05:27:41.524Z,9.30
2022-09-28T05:30:52.293Z,9.17
2022-09-28T05:33:55.645Z,9.17
2022-09-28T05:36:58.446Z,9.30
2022-09-28T05:40:00.857Z,9.28
2022-09-28T05:43:04.053Z,9.32
2022-09-28T05:46:07.482Z,9.31
2022-09-28T05:49:10.827Z,9.36
2022-09-28T05:52:13.861Z,9.87
2022-09-28T05:55:16.781Z,12.99
2022-09-28T05:58:19.308Z,19.02
2022-09-28T06:01:22.030Z,22.58
2022-09-28T06:04:24.949Z,22.33
2022-09-28T06:07:27.270Z,19.85
2022-09-28T06:10:30.332Z,18.12
2022-09-28T06:13:32.597Z,16.28
2022-09-28T06:16:37.358Z,16.36
2022-09-28T06:19:41.772Z,17.23
2022-09-28T06:22:50.661Z,16.05
2022-09-28T06:25:52.869Z,15.66
2022-09-28T06:28:55.671Z,14.31
2022-09-28T06:31:58.993Z,13.99
2022-09-28T06:35:01.552Z,13.84
2022-09-28T06:38:04.499Z,13.57
2022-09-28T06:41:07.439Z,13.19
2022-09-28T06:44:09.724Z,13.26
2022-09-28T06:47:19.056Z,13.13
2022-09-28T06:50:22.703Z,12.89
2022-09-28T06:53:25.495Z,12.85
2022-09-28T06:56:32.673Z,12.71
2022-09-28T06:59:35.844Z,12.66
2022-09-28T07:02:38.257Z,12.70
2022-09-28T07:05:42.755Z,12.77
2022-09-28T07:08:54.668Z,12.83
2022-09-28T07:12:10.019Z,12.91
2022-09-28T07:15:13.526Z,12.87
2022-09-28T07:18:17.890Z,12.95
2022-09-28T07:21:28.688Z,13.23
2022-09-28T07:24:33.315Z,13.32
2022-09-28T07:27:42.605Z,13.35
2022-09-28T07:30:45.447Z,13.45
2022-09-28T07:33:51.048Z,13.58
2022-09-28T07:36:58.113Z,13.63
2022-09-28T07:40:19.452Z,13.79
2022-09-28T07:43:22.680Z,13.82
2022-09-28T07:46:25.012Z,13.82
2022-09-28T07:49:30.726Z,13.81
2022-09-28T07:52:35.209Z,14.06
2022-09-28T07:55:38.415Z,14.50
2022-09-28T07:58:41.131Z,15.33
2022-09-28T08:01:45.133Z,15.98
2022-09-28T08:04:49.268Z,15.65
2022-09-28T08:07:52.951Z,15.34
2022-09-28T08:10:57.169Z,15.37
2022-09-28T08:14:00.405Z,15.46
2022-09-28T08:17:04.353Z,15.63
2022-09-28T08:20:25.989Z,15.82
2022-09-28T08:23:28.672Z,16.35
2022-09-28T08:26:31.019Z,16.57
2022-09-28T08:29:33.673Z,16.80
2022-09-28T08:32:36.147Z,16.60
2022-09-28T08:35:41.075Z,16.16
2022-09-28T08:38:43.779Z,15.92
2022-09-28T08:41:47.559Z,15.89
2022-09-28T08:44:57.741Z,15.90
2022-09-28T08:48:19.531Z,15.78
2022-09-28T08:51:26.833Z,15.85
2022-09-28T08:54:39.479Z,16.03
2022-09-28T08:57:49.464Z,16.28
2022-09-28T09:00:54.179Z,16.59
2022-09-28T09:03:58.144Z,16.54
2022-09-28T09:07:01.148Z,16.42
2022-09-28T09:10:11.611Z,16.22
2022-09-28T09:13:19.993Z,16.16
2022-09-28T09:16:31.935Z,16.09
2022-09-28T09:19:46.007Z,16.00
2022-09-28T09:22:54.785Z,16.04
2022-09-28T09:26:03.636Z,15.97
2022-09-28T09:29:06.055Z,16.22
2022-09-28T09:32:16.591Z,16.41
2022-09-28T09:35:38.136Z,16.43
2022-09-28T09:38:55.444Z,16.41
2022-09-28T09:42:01.050Z,16.33
2022-09-28T09:45:15.896Z,16.50
2022-09-28T09:48:25.165Z,16.47
2022-09-28T09:51:36.577Z,16.51
2022-09-28T09:54:49.615Z,16.60
2022-09-28T09:58:09.931Z,16.80
2022-09-28T10:01:15.779Z,17.00
2022-09-28T10:04:28.137Z,17.10
2022-09-28T10:07:43.571Z,17.49
2022-09-28T10:10:49.483Z,17.18
2022-09-28T10:13:52.360Z,16.98
2022-09-28T10:16:58.769Z,17.06
2022-09-28T10:20:03.647Z,17.43
2022-09-28T10:23:14.456Z,17.52
2022-09-28T10:26:25.046Z,17.69
2022-09-28T10:29:35.040Z,17.79
2022-09-28T10:32:37.480Z,18.01
2022-09-28T10:35:42.271Z,17.76
2022-09-28T10:38:47.740Z,17.62
2022-09-28T10:41:51.899Z,17.52
2022-09-28T10:44:58.942Z,17.66
2022-09-28T10:48:04.245Z,17.68
2022-09-28T10:51:07.220Z,17.57
2022-09-28T10:54:18.339Z,17.64
2022-09-28T10:57:40.793Z,17.78
2022-09-28T11:00:44.713Z,18.10
2022-09-28T11:03:57.700Z,18.11
2022-09-28T11:07:01.839Z,17.53
2022-09-28T11:10:04.759Z,17.38
2022-09-28T11:13:09.483Z,17.33
2022-09-28T11:16:22.794Z,17.27
2022-09-28T11:19:32.127Z,17.17
2022-09-28T11:22:34.434Z,17.00
2022-09-28T11:25:39.559Z,17.14
2022-09-28T11:28:43.131Z,17.52
2022-09-28T11:31:46.617Z,17.87
2022-09-28T11:35:03.297Z,18.26
2022-09-28T11:38:08.861Z,18.05
2022-09-28T11:41:24.132Z,18.10
2022-09-28T11:44:30.980Z,18.37
2022-09-28T11:47:42.334Z,18.42
2022-09-28T11:50:52.506Z,18.48
2022-09-28T11:53:58.600Z,18.33
2022-09-28T11:57:03.089Z,18.27
2022-09-28T12:00:10.686Z,18.44
2022-09-28T12:03:22.789Z,18.47
2022-09-28T12:06:31.612Z,18.43
2022-09-28T12:09:38.945Z,18.34
2022-09-28T12:12:57.018Z,18.11
2022-09-28T12:16:27.643Z,18.25
2022-09-28T12:19:34.831Z,18.09
2022-09-28T12:22:55.468Z,18.04
2022-09-28T12:25:59.577Z,18.01
2022-09-28T12:29:06.547Z,18.15
2022-09-28T12:32:27.895Z,18.35
2022-09-28T12:35:39.404Z,18.20
2022-09-28T12:39:19.094Z,17.95
2022-09-28T12:42:53.370Z,17.99
2022-09-28T12:46:11.085Z,17.84
2022-09-28T12:50:13.870Z,17.45
2022-09-28T12:56:03.764Z,17.87
2022-09-28T12:59:12.209Z,17.71
2022-09-28T13:02:14.913Z,17.34
2022-09-28T13:05:36.184Z,17.28
2022-09-28T13:08:55.296Z,17.61
2022-09-28T13:12:00.967Z,17.92
2022-09-28T13:15:06.465Z,17.86
2022-09-28T13:18:35.593Z,17.73
2022-09-28T13:21:43.914Z,17.63
2022-09-28T13:24:47.352Z,17.60
2022-09-28T13:27:55.519Z,17.52
2022-09-28T13:34:10.519Z,17.60
2022-09-28T13:37:21.966Z,17.37
2022-09-28T13:40:44.237Z,17.15
2022-09-28T13:43:49.850Z,17.14
2022-09-28T13:47:03.453Z,17.20
2022-09-28T13:50:15.481Z,17.51
2022-09-28T13:53:20.865Z,17.61
2022-09-28T13:56:24.486Z,17.64
2022-09-28T13:59:28.684Z,17.47
2022-09-28T14:02:44.165Z,17.23
2022-09-28T14:05:47.396Z,17.23
2022-09-28T14:08:52.642Z,17.28
2022-09-28T14:11:59.470Z,17.35
2022-09-28T14:15:02.577Z,17.67
2022-09-28T14:18:10.900Z,18.03
2022-09-28T14:21:22.336Z,18.09
2022-09-28T14:24:45.053Z,18.15
2022-09-28T14:28:06.616Z,18.10
2022-09-28T14:31:15.269Z,17.98
2022-09-28T14:34:36.388Z,18.06
2022-09-28T14:37:59.676Z,17.95
2022-09-28T14:41:10.192Z,17.97
2022-09-28T14:44:17.224Z,18.05
2022-09-28T14:47:33.584Z,18.16
2022-09-28T14:50:36.496Z,17.99
2022-09-28T14:53:39.782Z,17.78
2022-09-28T14:56:45.357Z,17.67
2022-09-28T14:59:47.804Z,17.48
2022-09-28T15:02:52.601Z,17.50
2022-09-28T15:05:55.310Z,17.43
2022-09-28T15:08:57.797Z,17.31
2022-09-28T15:12:07.608Z,17.31
2022-09-28T15:15:20.245Z,17.22
2022-09-28T15:18:27.601Z,17.15
2022-09-28T15:21:37.792Z,17.06
2022-09-28T15:24:45.172Z,16.88
2022-09-28T15:27:52.655Z,16.91
2022-09-28T15:31:02.416Z,16.81
2022-09-28T15:34:23.860Z,16.76
2022-09-28T15:37:40.416Z,16.73
2022-09-28T15:40:44.537Z,16.65
2022-09-28T15:44:03.533Z,16.65
2022-09-28T15:47:14.198Z,16.74
2022-09-28T15:50:28.194Z,16.59
2022-09-28T15:53:31.306Z,16.55
2022-09-28T15:56:50.201Z,16.49
2022-09-28T15:59:56.978Z,16.48
2022-09-28T16:03:05.501Z,16.35
2022-09-28T16:06:09.166Z,16.32
2022-09-28T16:09:31.518Z,16.21
2022-09-28T16:12:37.183Z,16.15
2022-09-28T16:15:39.539Z,16.04
2022-09-28T16:18:47.181Z,15.98
2022-09-28T16:21:51.187Z,15.96
2022-09-28T16:24:57.727Z,15.87
2022-09-28T16:28:00.826Z,15.87
2022-09-28T16:31:03.647Z,15.83
2022-09-28T16:34:11.569Z,15.72
2022-09-28T16:37:33.448Z,15.71
2022-09-28T16:40:38.766Z,15.62
2022-09-28T16:43:41.334Z,15.59
2022-09-28T16:46:44.696Z,15.63
2022-09-28T16:49:48.083Z,15.60
2022-09-28T16:53:16.835Z,15.61
2022-09-28T16:56:19.456Z,15.58
2022-09-28T16:59:22.304Z,15.66
2022-09-28T17:02:45.807Z,15.58
2022-09-28T17:05:49.983Z,15.59
2022-09-28T17:08:52.873Z,15.60
2022-09-28T17:11:57.017Z,15.55
2022-09-28T17:15:00.311Z,15.47
2022-09-28T17:18:02.713Z,15.50
2022-09-28T17:21:06.823Z,15.48
2022-09-28T17:24:09.177Z,15.46
2022-09-28T17:27:15.708Z,15.44
2022-09-28T17:30:20.258Z,15.43
2022-09-28T17:33:24.852Z,15.36
2022-09-28T17:36:27.244Z,15.31
2022-09-28T17:39:31.721Z,15.11
2022-09-28T17:42:33.973Z,14.83
2022-09-28T17:45:39.521Z,14.58
2022-09-28T17:48:46.125Z,14.32
2022-09-28T17:51:50.285Z,14.08
2022-09-28T17:54:52.575Z,13.95
2022-09-28T17:57:55.866Z,13.73
2022-09-28T18:00:58.186Z,13.53
2022-09-28T18:04:01.732Z,13.37
2022-09-28T18:07:04.063Z,13.21
2022-09-28T18:10:06.935Z,13.16
2022-09-28T18:13:09.996Z,13.07
2022-09-28T18:16:13.484Z,12.99
2022-09-28T18:19:16.491Z,12.96
2022-09-28T18:22:19.165Z,12.90
2022-09-28T18:25:21.540Z,12.78
2022-09-28T18:28:24.425Z,12.65
2022-09-28T18:31:27.718Z,12.58
2022-09-28T18:34:30.388Z,12.52
2022-09-28T18:37:40.322Z,12.49
2022-09-28T18:40:43.159Z,12.43
2022-09-28T18:43:49.390Z,12.37
2022-09-28T18:46:52.074Z,12.36
2022-09-28T18:49:54.512Z,12.35
2022-09-28T18:53:11.337Z,12.37
2022-09-28T18:56:18.207Z,12.36
2022-09-28T18:59:20.905Z,12.35
2022-09-28T19:02:23.551Z,12.32
2022-09-28T19:05:27.443Z,12.28
2022-09-28T19:08:29.713Z,12.28
2022-09-28T19:11:32.494Z,12.27
2022-09-28T19:14:34.732Z,12.26
2022-09-28T19:17:37.606Z,12.29
2022-09-28T19:20:39.940Z,12.27
2022-09-28T19:23:49.151Z,12.28
2022-09-28T19:26:53.625Z,12.22
2022-09-28T19:29:56.184Z,12.18
2022-09-28T19:32:58.937Z,12.20
2022-09-28T19:36:02.646Z,12.22
2022-09-28T19:39:07.113Z,12.18
2022-09-28T19:42:09.778Z,12.21
2022-09-28T19:45:12.339Z,12.18
2022-09-28T19:48:14.905Z,12.17
2022-09-28T19:51:18.059Z,12.17
2022-09-28T19:54:22.500Z,12.19
2022-09-28T19:57:26.058Z,12.18
2022-09-28T20:00:28.664Z,12.19
2022-09-28T20:03:31.268Z,12.16
2022-09-28T20:06:33.577Z,12.12
2022-09-28T20:09:36.255Z,12.11
2022-09-28T20:12:38.913Z,12.09
2022-09-28T20:15:41.617Z,12.08
2022-09-28T20:18:49.687Z,12.14
2022-09-28T20:21:52.292Z,12.09
2022-09-28T20:24:54.554Z,12.08
2022-09-28T20:27:57.123Z,12.10
2022-09-28T20:31:03.821Z,12.11
2022-09-28T20:34:06.982Z,12.09
2022-09-28T20:37:09.253Z,12.10
2022-09-28T20:40:11.948Z,12.09
2022-09-28T20:43:15.185Z,12.10
2022-09-28T20:46:19.343Z,12.06
2022-09-28T20:49:21.796Z,12.07
2022-09-28T20:52:24.801Z,12.09
2022-09-28T20:55:27.143Z,12.12
2022-09-28T20:58:30.159Z,12.11
2022-09-28T21:01:32.583Z,12.12
2022-09-28T21:04:35.746Z,12.12
2022-09-28T21:07:38.005Z,12.10
2022-09-28T21:10:43.370Z,12.15
2022-09-28T21:13:45.703Z,12.23
2022-09-28T21:16:48.279Z,12.17
2022-09-28T21:19:50.555Z,12.14
2022-09-28T21:22:53.119Z,12.11
2022-09-28T21:26:04.600Z,12.06
2022-09-28T21:29:10.639Z,12.06
2022-09-28T21:32:12.929Z,12.07
2022-09-28T21:35:15.605Z,12.07
2022-09-28T21:38:17.891Z,12.05
2022-09-28T21:41:20.630Z,12.04
2022-09-28T21:44:23.032Z,12.02
2022-09-28T21:47:25.512Z,11.97
2022-09-28T21:50:27.759Z,11.99
2022-09-28T21:53:31.622Z,11.95
2022-09-28T21:56:34.033Z,11.97
2022-09-28T21:59:36.586Z,11.97
2022-09-28T22:02:39.122Z,12.06
2022-09-28T22:05:41.903Z,12.01
2022-09-28T22:08:45.529Z,11.99
2022-09-28T22:11:49.099Z,11.98
2022-09-28T22:14:51.344Z,11.97
2022-09-28T22:17:53.908Z,12.00
2022-09-28T22:21:00.463Z,12.02
2022-09-28T22:24:04.166Z,12.05
2022-09-28T22:27:06.443Z,12.03
2022-09-28T22:30:09.212Z,12.03
2022-09-28T22:33:11.528Z,12.04
2022-09-28T22:36:16.641Z,12.02
2022-09-28T22:39:18.910Z,12.02
2022-09-28T22:42:21.826Z,12.02
2022-09-28T22:45:24.136Z,12.02
2022-09-28T22:48:26.632Z,12.03
2022-09-28T22:51:29.676Z,12.03
2022-09-28T22:54:32.299Z,12.03
2022-09-28T22:57:34.540Z,12.04
2022-09-28T23:00:37.259Z,12.01
2022-09-28T23:03:40.477Z,12.00
2022-09-28T23:06:42.997Z,12.00
2022-09-28T23:09:45.247Z,11.99
2022-09-28T23:12:47.813Z,12.00
2022-09-28T23:15:56.301Z,12.01
2022-09-28T23:18:59.225Z,12.02
2022-09-28T23:22:01.691Z,12.01
2022-09-28T23:25:22.660Z,11.98
2022-09-28T23:28:25.951Z,11.96
2022-09-28T23:31:29.905Z,11.96
2022-09-28T23:34:32.169Z,11.97
2022-09-28T23:37:35.037Z,11.97
2022-09-28T23:40:37.312Z,11.98
2022-09-28T23:43:39.977Z,11.99
2022-09-28T23:46:42.875Z,12.04
2022-09-28T23:49:45.591Z,12.01
2022-09-28T23:52:48.129Z,12.02
2022-09-28T23:55:50.804Z,12.08
2022-09-28T23:58:53.096Z,12.16
